createdAt,value
2022-11-29T00:01:34.538Z,99884.19
2022-11-29T00:04:01.587Z,99886.91
2022-11-29T00:06:31.249Z,99889.63
2022-11-29T00:09:00.939Z,99891.06
2022-11-29T00:11:49.545Z,99892.53
2022-11-29T00:14:18.484Z,99891.03
2022-11-29T00:16:45.415Z,99890.88
2022-11-29T00:19:13.673Z,99890.25
2022-11-29T00:21:40.308Z,99886.06
2022-11-29T00:24:07.634Z,99892.72
2022-11-29T00:26:34.274Z,99892.53
2022-11-29T00:29:00.953Z,99884.41
2022-11-29T00:31:33.459Z,99873.97
2022-11-29T00:34:03.101Z,99884.78
2022-11-29T00:36:30.141Z,99870.09
2022-11-29T00:38:56.841Z,99864.66
2022-11-29T00:41:23.435Z,99869.06
2022-11-29T00:43:50.192Z,99871.94
2022-11-29T00:46:17.346Z,99876.50
2022-11-29T00:48:43.998Z,99880.69
2022-11-29T00:51:11.093Z,99882.34
2022-11-29T00:53:38.243Z,99887.78
2022-11-29T00:56:06.094Z,99883.75
2022-11-29T00:58:33.255Z,99894.66
2022-11-29T01:01:00.544Z,99899.34
2022-11-29T01:03:27.358Z,99895.19
2022-11-29T01:06:08.257Z,99899.34
2022-11-29T01:08:35.535Z,99897.47
2022-11-29T01:11:24.273Z,99907.38
2022-11-29T01:13:55.084Z,99903.16
2022-11-29T01:16:22.188Z,99897.47
2022-11-29T01:18:48.837Z,99901.03
2022-11-29T01:21:18.763Z,99906.03
2022-11-29T01:23:46.469Z,99905.78
2022-11-29T01:26:26.038Z,99910.25
2022-11-29T01:28:54.528Z,99913.66
2022-11-29T01:31:24.097Z,99912.59
2022-11-29T01:33:55.100Z,99918.28
2022-11-29T01:36:22.199Z,99914.91
2022-11-29T01:38:48.874Z,99918.72
2022-11-29T01:41:18.956Z,99918.63
2022-11-29T01:44:04.196Z,99920.09
2022-11-29T01:46:33.310Z,99924.56
2022-11-29T01:49:08.962Z,99936.06
2022-11-29T01:51:38.947Z,99940.44
2022-11-29T01:54:07.449Z,99948.00
2022-11-29T01:56:35.242Z,99949.69
2022-11-29T01:59:06.229Z,99949.47
2022-11-29T02:01:34.701Z,99962.69
2022-11-29T02:04:01.655Z,99961.25
2022-11-29T02:06:29.919Z,99954.78
2022-11-29T02:08:56.700Z,99964.88
2022-11-29T02:11:32.406Z,99961.97
2022-11-29T02:14:20.538Z,99969.97
2022-11-29T02:16:47.661Z,99975.41
2022-11-29T02:19:48.970Z,99968.28
2022-11-29T02:22:24.670Z,99972.91
2022-11-29T02:25:15.551Z,99981.53
2022-11-29T02:28:09.388Z,99975.44
2022-11-29T02:31:04.360Z,99984.84
2022-11-29T02:34:08.118Z,99984.03
2022-11-29T02:37:07.166Z,99993.84
2022-11-29T02:39:54.829Z,99996.41
2022-11-29T02:42:28.957Z,100001.25
2022-11-29T02:45:14.639Z,100002.53
2022-11-29T02:47:59.469Z,100010.25
2022-11-29T02:50:41.496Z,100013.81
2022-11-29T02:53:27.112Z,100012.75
2022-11-29T02:56:20.825Z,100021.59
2022-11-29T02:59:10.955Z,100026.66
2022-11-29T03:02:02.360Z,100021.22
2022-11-29T03:04:39.653Z,100021.88
2022-11-29T03:07:21.234Z,100028.59
2022-11-29T03:10:25.226Z,100034.03
2022-11-29T03:12:54.411Z,100043.50
2022-11-29T03:15:35.039Z,100039.31
2022-11-29T03:18:13.822Z,100043.88
2022-11-29T03:20:55.740Z,100043.88
2022-11-29T03:23:33.319Z,100051.22
2022-11-29T03:26:13.878Z,100046.41
2022-11-29T03:28:52.777Z,100051.63
2022-11-29T03:31:38.926Z,100050.19
2022-11-29T03:34:25.402Z,100058.16
2022-11-29T03:37:34.552Z,100062.75
2022-11-29T03:40:10.969Z,100067.19
2022-11-29T03:42:56.052Z,100068.19
2022-11-29T03:45:29.137Z,100063.41
2022-11-29T03:48:21.991Z,100067.41
2022-11-29T03:50:56.729Z,100070.97
2022-11-29T03:53:33.553Z,100073.69
2022-11-29T03:56:01.236Z,100076.63
2022-11-29T03:58:53.285Z,100076.25
2022-11-29T04:01:32.108Z,100078.34
2022-11-29T04:04:26.217Z,100079.78
2022-11-29T04:07:11.620Z,100084.59
2022-11-29T04:10:04.235Z,100089.00
2022-11-29T04:13:00.974Z,100094.25
2022-11-29T04:15:46.391Z,100090.66
2022-11-29T04:18:31.253Z,100088.78
2022-11-29T04:21:22.606Z,100093.19
2022-11-29T04:23:57.714Z,100088.19
2022-11-29T04:26:24.261Z,100089.84
2022-11-29T04:29:11.995Z,100089.22
2022-11-29T04:32:13.946Z,100085.66
2022-11-29T04:35:02.409Z,100091.31
2022-11-29T04:37:37.793Z,100093.81
2022-11-29T04:40:58.132Z,100092.16
2022-11-29T04:43:52.447Z,100093.38
2022-11-29T04:46:31.919Z,100099.69
2022-11-29T04:49:16.557Z,100108.03
2022-11-29T04:52:03.371Z,100120.41
2022-11-29T04:55:04.471Z,100116.00
2022-11-29T04:57:57.824Z,100128.16
2022-11-29T05:00:25.236Z,100126.06
2022-11-29T05:03:11.918Z,100132.13
2022-11-29T05:05:53.315Z,100134.84
2022-11-29T05:08:45.286Z,100134.66
2022-11-29T05:11:44.571Z,100144.47
2022-11-29T05:14:24.167Z,100154.31
2022-11-29T05:16:54.565Z,100148.06
2022-11-29T05:20:03.849Z,100157.88
2022-11-29T05:22:44.211Z,100157.25
2022-11-29T05:25:37.326Z,100157.25
2022-11-29T05:28:14.701Z,100159.97
2022-11-29T05:30:47.561Z,100163.34
2022-11-29T05:33:49.635Z,100167.91
2022-11-29T05:36:40.010Z,100182.16
2022-11-29T05:39:31.030Z,100177.13
2022-11-29T05:42:45.958Z,100176.28
2022-11-29T05:45:27.214Z,100176.28
2022-11-29T05:48:04.637Z,100186.56
2022-11-29T05:50:42.521Z,100186.56
2022-11-29T05:53:28.393Z,100198.47
2022-11-29T05:56:05.506Z,100198.06
2022-11-29T05:58:40.967Z,100197.66
2022-11-29T06:01:18.861Z,100203.50
2022-11-29T06:04:14.758Z,100209.78
2022-11-29T06:06:49.485Z,100211.66
2022-11-29T06:09:33.847Z,100207.47
2022-11-29T06:12:06.842Z,100214.81
2022-11-29T06:15:17.836Z,100218.59
2022-11-29T06:18:03.277Z,100224.66
2022-11-29T06:20:41.670Z,100221.72
2022-11-29T06:23:52.667Z,100229.88
2022-11-29T06:26:37.738Z,100223.38
2022-11-29T06:29:39.425Z,100234.06
2022-11-29T06:32:37.481Z,100245.97
2022-11-29T06:35:11.306Z,100247.03
2022-11-29T06:37:47.223Z,100252.88
2022-11-29T06:40:16.017Z,100258.94
2022-11-29T06:42:43.134Z,100258.53
2022-11-29T06:45:15.355Z,100257.91
2022-11-29T06:47:52.058Z,100257.28
2022-11-29T06:50:29.205Z,100262.31
2022-11-29T06:53:01.983Z,100260.41
2022-11-29T06:55:37.227Z,100262.72
2022-11-29T06:58:15.984Z,100263.13
2022-11-29T07:00:54.631Z,100269.66
2022-11-29T07:03:41.958Z,100280.50
2022-11-29T07:06:16.480Z,100279.88
2022-11-29T07:08:43.587Z,100282.38
2022-11-29T07:11:13.510Z,100296.81
2022-11-29T07:13:40.434Z,100284.50
2022-11-29T07:16:14.732Z,100283.22
2022-11-29T07:18:59.956Z,100272.34
2022-11-29T07:21:53.317Z,100272.56
2022-11-29T07:24:44.004Z,100270.50
2022-11-29T07:27:21.279Z,100273.22
2022-11-29T07:30:07.508Z,100262.94
2022-11-29T07:32:50.773Z,100258.56
2022-11-29T07:35:38.548Z,100268.38
2022-11-29T07:38:29.043Z,100280.94
2022-11-29T07:41:31.191Z,100281.78
2022-11-29T07:44:24.535Z,100291.81
2022-11-29T07:46:51.282Z,100296.44
2022-11-29T07:49:17.962Z,100296.00
2022-11-29T07:51:44.975Z,100299.38
2022-11-29T07:54:19.234Z,100296.00
2022-11-29T07:56:46.112Z,100302.31
2022-11-29T07:59:13.042Z,100307.72
2022-11-29T08:01:40.784Z,100302.91
2022-11-29T08:04:08.237Z,100297.06
2022-11-29T08:06:35.875Z,100299.59
2022-11-29T08:09:04.006Z,100303.16
2022-11-29T08:11:30.651Z,100310.25
2022-11-29T08:13:58.994Z,100310.28
2022-11-29T08:16:25.864Z,100316.78
2022-11-29T08:18:55.494Z,100321.16
2022-11-29T08:21:23.008Z,100314.06
2022-11-29T08:23:51.399Z,100320.13
2022-11-29T08:26:19.962Z,100316.16
2022-11-29T08:28:51.901Z,100317.00
2022-11-29T08:31:19.799Z,100320.09
2022-11-29T08:33:46.808Z,100326.19
2022-11-29T08:36:16.175Z,100324.09
2022-11-29T08:38:43.386Z,100329.97
2022-11-29T08:41:12.926Z,100331.63
2022-11-29T08:43:39.899Z,100327.44
2022-11-29T08:46:07.071Z,100330.81
2022-11-29T08:48:34.059Z,100326.81
2022-11-29T08:51:00.701Z,100329.97
2022-11-29T08:53:43.378Z,100314.47
2022-11-29T08:59:04.461Z,100324.09
2022-11-29T09:01:31.211Z,100325.78
2022-11-29T09:04:03.095Z,100332.88
2022-11-29T09:06:38.761Z,100330.81
2022-11-29T09:09:05.763Z,100335.81
2022-11-29T09:11:34.973Z,100344.63
2022-11-29T09:14:05.325Z,100344.88
2022-11-29T09:16:35.930Z,100350.75
2022-11-29T09:19:03.622Z,100357.22
2022-11-29T09:21:32.485Z,100360.78
2022-11-29T09:24:01.141Z,100371.06
2022-11-29T09:26:31.211Z,100365.41
2022-11-29T09:29:03.956Z,100370.00
2022-11-29T09:31:32.185Z,100373.97
2022-11-29T09:33:58.949Z,100379.19
2022-11-29T09:36:28.959Z,100373.75
2022-11-29T09:39:02.654Z,100370.19
2022-11-29T09:41:34.980Z,100376.06
2022-11-29T09:44:35.194Z,100382.13
2022-11-29T09:47:10.933Z,100384.88
2022-11-29T09:49:37.587Z,100384.03
2022-11-29T09:52:22.190Z,100386.97
2022-11-29T09:55:14.566Z,100393.25
2022-11-29T09:57:44.669Z,100392.41
2022-11-29T10:00:17.129Z,100394.91
2022-11-29T10:02:55.180Z,100398.06
2022-11-29T10:05:43.092Z,100404.16
2022-11-29T10:08:42.017Z,100408.16
2022-11-29T10:11:21.541Z,100402.88
2022-11-29T10:13:54.063Z,100404.38
2022-11-29T10:16:20.732Z,100412.97
2022-11-29T10:19:00.509Z,100415.69
2022-11-29T10:21:37.662Z,100406.69
2022-11-29T10:24:14.736Z,100410.66
2022-11-29T10:26:43.517Z,100405.41
2022-11-29T10:29:14.605Z,100404.53
2022-11-29T10:31:44.365Z,100407.91
2022-11-29T10:34:15.022Z,100406.22
2022-11-29T10:36:47.374Z,100396.59
2022-11-29T10:39:27.342Z,100400.34
2022-11-29T10:41:56.896Z,100396.78
2022-11-29T10:44:24.677Z,100391.09
2022-11-29T10:46:52.442Z,100396.34
2022-11-29T10:49:23.328Z,100393.22
2022-11-29T10:51:49.978Z,100390.28
2022-11-29T10:54:38.417Z,100386.91
2022-11-29T10:57:15.725Z,100396.78
2022-11-29T10:59:57.683Z,100391.94
2022-11-29T11:02:24.595Z,100391.94
2022-11-29T11:04:51.589Z,100390.06
2022-11-29T11:07:33.225Z,100394.09
2022-11-29T11:10:00.217Z,100394.50
2022-11-29T11:12:32.427Z,100395.31
2022-11-29T11:15:29.535Z,100391.94
2022-11-29T11:18:05.919Z,100395.50
2022-11-29T11:20:41.424Z,100386.50
2022-11-29T11:23:24.788Z,100395.09
2022-11-29T11:26:02.293Z,100400.34
2022-11-29T11:28:59.638Z,100393.63
2022-11-29T11:31:39.788Z,100392.59
2022-11-29T11:34:25.549Z,100402.47
2022-11-29T11:36:53.607Z,100401.63
2022-11-29T11:39:22.714Z,100408.31
2022-11-29T11:42:11.529Z,100402.44
2022-11-29T11:44:50.086Z,100409.38
2022-11-29T11:47:21.414Z,100408.34
2022-11-29T11:50:00.259Z,100406.25
2022-11-29T11:52:29.350Z,100403.09
2022-11-29T11:55:02.096Z,100396.16
2022-11-29T11:57:29.945Z,100403.09
2022-11-29T12:00:03.429Z,100400.78
2022-11-29T12:02:39.009Z,100403.94
2022-11-29T12:05:13.322Z,100408.97
2022-11-29T12:08:13.659Z,100408.31
2022-11-29T12:10:41.477Z,100404.34
2022-11-29T12:13:19.706Z,100402.47
2022-11-29T12:15:49.995Z,100404.16
2022-11-29T12:18:27.191Z,100401.63
2022-11-29T12:21:13.437Z,100400.97
2022-11-29T12:23:49.781Z,100403.72
2022-11-29T12:29:30.139Z,100403.72
2022-11-29T12:32:21.013Z,100413.34
2022-11-29T12:35:19.035Z,100410.84
2022-11-29T12:38:07.141Z,100416.09
2022-11-29T12:40:59.898Z,100414.22
2022-11-29T12:43:36.201Z,100419.22
2022-11-29T12:46:24.602Z,100417.75
2022-11-29T12:49:00.809Z,100414.59
2022-11-29T12:51:52.523Z,100415.25
2022-11-29T12:54:31.686Z,100411.88
2022-11-29T12:57:08.081Z,100408.34
2022-11-29T12:59:52.928Z,100407.31
2022-11-29T13:02:41.514Z,100413.78
2022-11-29T13:05:35.823Z,100411.25
2022-11-29T13:08:05.238Z,100402.91
2022-11-29T13:10:51.206Z,100406.66
2022-11-29T13:13:37.577Z,100412.09
2022-11-29T13:16:31.042Z,100408.75
2022-11-29T13:19:17.212Z,100410.84
2022-11-29T13:22:11.349Z,100412.53
2022-11-29T13:24:42.862Z,100403.31
2022-11-29T13:27:19.359Z,100413.81
2022-11-29T13:29:47.431Z,100405.41
2022-11-29T13:32:51.713Z,100412.31
2022-11-29T13:35:21.865Z,100418.19
2022-11-29T13:38:21.093Z,100413.41
2022-11-29T13:41:26.020Z,100422.59
2022-11-29T13:44:04.424Z,100420.50
2022-11-29T13:46:43.553Z,100417.97
2022-11-29T13:49:21.943Z,100428.91
2022-11-29T13:51:49.748Z,100419.25
2022-11-29T13:54:31.125Z,100426.38
2022-11-29T13:57:06.910Z,100420.50
2022-11-29T13:59:36.294Z,100424.69
2022-11-29T14:02:04.383Z,100419.88
2022-11-29T14:04:39.185Z,100414.00
2022-11-29T14:07:05.724Z,100408.13
2022-11-29T14:10:16.417Z,100422.81
2022-11-29T14:12:54.249Z,100410.44
2022-11-29T14:15:32.666Z,100413.16
2022-11-29T14:18:08.393Z,100407.50
2022-11-29T14:20:44.391Z,100407.53
2022-11-29T14:23:17.760Z,100404.16
2022-11-29T14:25:57.688Z,100408.72
2022-11-29T14:28:24.270Z,100411.25
2022-11-29T14:30:52.704Z,100412.13
2022-11-29T14:33:41.228Z,100409.56
2022-11-29T14:36:24.293Z,100403.69
2022-11-29T14:39:22.685Z,100399.09
2022-11-29T14:42:04.276Z,100405.38
2022-11-29T14:44:43.180Z,100404.34
2022-11-29T14:47:23.843Z,100407.47
2022-11-29T14:49:52.965Z,100409.34
2022-11-29T14:52:28.800Z,100394.06
2022-11-29T14:55:00.856Z,100394.91
2022-11-29T14:57:58.505Z,100399.31
2022-11-29T15:00:34.960Z,100394.06
2022-11-29T15:03:02.832Z,100400.56
2022-11-29T15:05:38.488Z,100404.94
2022-11-29T15:08:29.226Z,100403.88
2022-11-29T15:11:03.376Z,100403.69
2022-11-29T15:13:35.942Z,100413.75
2022-11-29T15:16:22.840Z,100405.34
2022-11-29T15:19:12.256Z,100409.78
2022-11-29T15:22:00.909Z,100416.03
2022-11-29T15:24:28.924Z,100415.41
2022-11-29T15:27:03.999Z,100418.75
2022-11-29T15:29:31.827Z,100431.72
2022-11-29T15:32:01.510Z,100424.16
2022-11-29T15:34:31.755Z,100428.38
2022-11-29T15:36:59.973Z,100426.03
2022-11-29T15:39:35.882Z,100427.50
2022-11-29T15:42:14.027Z,100432.94
2022-11-29T15:44:48.252Z,100439.25
2022-11-29T15:47:26.383Z,100442.16
2022-11-29T15:49:54.492Z,100445.31
2022-11-29T15:52:30.370Z,100441.72
2022-11-29T15:55:02.498Z,100439.25
2022-11-29T15:57:31.152Z,100439.66
2022-11-29T16:00:02.662Z,100430.84
2022-11-29T16:02:35.335Z,100437.56
2022-11-29T16:05:20.481Z,100427.50
2022-11-29T16:07:50.045Z,100435.88
2022-11-29T16:10:20.764Z,100428.13
2022-11-29T16:13:25.948Z,100432.53
2022-11-29T16:16:09.018Z,100436.72
2022-11-29T16:18:37.026Z,100444.25
2022-11-29T16:21:07.007Z,100450.72
2022-11-29T16:23:41.483Z,100456.81
2022-11-29T16:26:16.358Z,100456.00
2022-11-29T16:28:46.007Z,100450.53
2022-11-29T16:31:20.857Z,100448.22
2022-11-29T16:33:50.307Z,100454.28
2022-11-29T16:36:20.908Z,100452.22
2022-11-29T16:38:54.356Z,100460.16
2022-11-29T16:41:21.352Z,100463.50
2022-11-29T16:43:53.860Z,100457.00
2022-11-29T16:46:20.595Z,100464.28
2022-11-29T16:48:49.157Z,100465.53
2022-11-29T16:51:25.853Z,100459.44
2022-11-29T16:53:54.275Z,100465.94
2022-11-29T16:56:23.800Z,100467.59
2022-11-29T16:59:17.052Z,100467.81
2022-11-29T17:01:46.858Z,100473.09
2022-11-29T17:04:13.552Z,100469.31
2022-11-29T17:06:51.007Z,100467.66
2022-11-29T17:09:35.859Z,100467.44
2022-11-29T17:12:03.307Z,100467.22
2022-11-29T17:14:30.361Z,100469.72
2022-11-29T17:16:59.898Z,100475.16
2022-11-29T17:19:29.259Z,100479.75
2022-11-29T17:21:56.032Z,100486.25
2022-11-29T17:24:23.512Z,100485.47
2022-11-29T17:26:50.848Z,100484.03
2022-11-29T17:29:18.463Z,100495.53
2022-11-29T17:31:46.423Z,100489.88
2022-11-29T17:34:14.001Z,100492.38
2022-11-29T17:36:40.798Z,100499.31
2022-11-29T17:39:08.455Z,100505.34
2022-11-29T17:41:35.241Z,100504.91
2022-11-29T17:44:01.955Z,100496.97
2022-11-29T17:46:31.544Z,100502.63
2022-11-29T17:49:03.015Z,100508.47
2022-11-29T17:54:16.884Z,100504.81
2022-11-29T17:56:43.469Z,100508.63
2022-11-29T17:59:10.157Z,100506.94
2022-11-29T18:01:36.938Z,100505.47
2022-11-29T18:04:06.308Z,100510.28
2022-11-29T18:06:38.303Z,100508.56
2022-11-29T18:09:07.511Z,100524.47
2022-11-29T18:11:45.224Z,100519.03
2022-11-29T18:14:16.109Z,100518.75
2022-11-29T18:16:44.946Z,100525.00
2022-11-29T18:19:14.080Z,100521.06
2022-11-29T18:21:40.708Z,100520.66
2022-11-29T18:24:09.480Z,100524.88
2022-11-29T18:26:37.631Z,100515.44
2022-11-29T18:29:05.694Z,100522.38
2022-11-29T18:31:34.535Z,100517.38
2022-11-29T18:34:07.291Z,100517.81
2022-11-29T18:36:37.414Z,100517.78
2022-11-29T18:39:07.411Z,100523.88
2022-11-29T18:41:34.358Z,100527.81
2022-11-29T18:44:04.296Z,100525.50
2022-11-29T18:46:32.405Z,100531.16
2022-11-29T18:49:01.122Z,100531.16
2022-11-29T18:51:29.517Z,100527.44
2022-11-29T18:53:56.759Z,100524.28
2022-11-29T18:56:25.778Z,100530.38
2022-11-29T18:59:14.817Z,100522.00
2022-11-29T19:01:42.689Z,100539.75
2022-11-29T19:04:14.964Z,100538.69
2022-11-29T19:06:42.450Z,100535.78
2022-11-29T19:09:14.475Z,100527.34
2022-11-29T19:11:41.547Z,100536.94
2022-11-29T19:14:11.689Z,100534.59
2022-11-29T19:16:42.584Z,100536.50
2022-11-29T19:19:10.670Z,100533.09
2022-11-29T19:21:43.099Z,100545.84
2022-11-29T19:24:15.640Z,100545.59
2022-11-29T19:26:44.932Z,100552.94
2022-11-29T19:29:12.806Z,100545.47
2022-11-29T19:31:39.494Z,100559.22
2022-11-29T19:34:06.661Z,100559.88
2022-11-29T19:36:34.603Z,100562.41
2022-11-29T19:39:02.630Z,100563.06
2022-11-29T19:41:32.043Z,100555.28
2022-11-29T19:44:02.425Z,100556.34
2022-11-29T19:46:31.700Z,100563.84
2022-11-29T19:48:59.567Z,100567.81
2022-11-29T19:51:28.416Z,100567.81
2022-11-29T19:54:00.082Z,100572.41
2022-11-29T19:56:28.134Z,100565.72
2022-11-29T19:58:55.297Z,100561.56
2022-11-29T20:01:37.761Z,100561.94
2022-11-29T20:04:07.537Z,100568.31
2022-11-29T20:06:34.814Z,100567.50
2022-11-29T20:09:02.685Z,100567.56
2022-11-29T20:11:29.711Z,100569.69
2022-11-29T20:14:01.948Z,100573.63
2022-11-29T20:16:30.541Z,100569.22
2022-11-29T20:18:58.192Z,100562.16
2022-11-29T20:21:27.527Z,100568.63
2022-11-29T20:24:01.591Z,100569.88
2022-11-29T20:26:30.430Z,100570.28
2022-11-29T20:28:57.009Z,100575.88
2022-11-29T20:31:24.019Z,100570.66
2022-11-29T20:33:53.252Z,100570.28
2022-11-29T20:36:41.761Z,100564.88
2022-11-29T20:39:17.199Z,100573.25
2022-11-29T20:41:53.065Z,100575.28
2022-11-29T20:44:39.785Z,100574.00
2022-11-29T20:47:40.376Z,100578.44
2022-11-29T20:50:08.298Z,100586.97
2022-11-29T20:52:45.507Z,100583.91
2022-11-29T20:55:12.317Z,100593.31
2022-11-29T20:57:39.165Z,100594.53
2022-11-29T21:00:07.827Z,100589.34
2022-11-29T21:02:34.437Z,100592.44
2022-11-29T21:05:01.884Z,100600.44
2022-11-29T21:07:29.216Z,100598.34
2022-11-29T21:10:00.895Z,100601.91
2022-11-29T21:12:29.442Z,100605.03
2022-11-29T21:14:56.699Z,100606.84
2022-11-29T21:17:27.559Z,100605.78
2022-11-29T21:19:58.735Z,100609.63
2022-11-29T21:22:34.421Z,100603.91
2022-11-29T21:25:04.202Z,100606.84
2022-11-29T21:27:33.326Z,100605.34
2022-11-29T21:30:03.254Z,100604.06
2022-11-29T21:32:30.135Z,100610.53
2022-11-29T21:34:56.774Z,100602.91
2022-11-29T21:37:27.619Z,100603.78
2022-11-29T21:39:55.473Z,100602.78
2022-11-29T21:42:22.049Z,100608.22
2022-11-29T21:44:49.487Z,100602.78
2022-11-29T21:47:16.720Z,100606.94
2022-11-29T21:49:43.388Z,100601.66
2022-11-29T21:52:11.831Z,100605.13
2022-11-29T21:54:39.045Z,100601.69
2022-11-29T21:57:05.767Z,100610.16
2022-11-29T21:59:32.369Z,100602.59
2022-11-29T22:01:59.917Z,100608.59
2022-11-29T22:04:27.062Z,100611.50
2022-11-29T22:06:54.284Z,100608.91
2022-11-29T22:09:20.910Z,100605.16
2022-11-29T22:11:47.938Z,100616.22
2022-11-29T22:14:19.212Z,100609.81
2022-11-29T22:16:55.993Z,100604.06
2022-11-29T22:19:25.574Z,100610.59
2022-11-29T22:22:01.475Z,100610.59
2022-11-29T22:24:30.940Z,100609.75
2022-11-29T22:26:58.426Z,100608.16
2022-11-29T22:29:25.286Z,100608.16
2022-11-29T22:31:54.086Z,100600.84
2022-11-29T22:34:21.637Z,100604.59
2022-11-29T22:36:48.817Z,100609.00
2022-11-29T22:39:15.473Z,100609.13
2022-11-29T22:41:42.401Z,100620.00
2022-11-29T22:44:09.684Z,100623.59
2022-11-29T22:46:40.239Z,100613.94
2022-11-29T22:49:07.364Z,100614.78
2022-11-29T22:51:36.543Z,100604.19
2022-11-29T22:54:09.235Z,100613.38
2022-11-29T22:56:40.907Z,100614.94
2022-11-29T22:59:08.225Z,100609.44
2022-11-29T23:01:37.113Z,100614.88
2022-11-29T23:04:06.141Z,100613.88
2022-11-29T23:06:35.664Z,100617.59
2022-11-29T23:09:12.041Z,100619.56
2022-11-29T23:11:38.709Z,100614.25
2022-11-29T23:14:05.410Z,100621.09
2022-11-29T23:16:32.926Z,100610.66
2022-11-29T23:19:00.582Z,100609.44
2022-11-29T23:21:35.244Z,100612.22
2022-11-29T23:24:02.400Z,100609.91
2022-11-29T23:26:30.678Z,100615.88
2022-11-29T23:28:58.599Z,100619.47
2022-11-29T23:31:25.709Z,100615.03
2022-11-29T23:33:52.468Z,100620.84
2022-11-29T23:36:19.198Z,100623.28
2022-11-29T23:38:46.250Z,100620.94
2022-11-29T23:41:13.178Z,100617.38
2022-11-29T23:43:41.179Z,100619.91
2022-11-29T23:46:09.588Z,100615.50
2022-11-29T23:48:37.309Z,100610.59
2022-11-29T23:51:04.219Z,100616.19
2022-11-29T23:53:30.830Z,100616.34
2022-11-29T23:56:08.573Z,100619.16
2022-11-29T23:58:35.441Z,100625.81
